General Aviation Weather

Text Reports

Enter one or more of the following location identifiers separated by a space:

Zip Code, Four-Character ICAO or Three-Character IATA airport codes.

METAR - Aviation Routine Weather Report
PAII - Egegik, Alaska
Updated at 12:57 AM GMT on February 12, 2016 (3:57 PM AKST):
METAR PAII 120057Z AUTO 36009KT 10SM CLR 03/M01 A2931 RMK AO2 SLP927 T00281011
TAF - Terminal Area Forecast
PAII - Egegik, Alaska
Updated at 12:57 AM GMT on February 12, 2016 (3:57 PM AKST):
No TAF is currently available for this location.
Decoded:
No decoded TAF is available.
PIREP - Pilot Weather Report
PAII - Egegik, Alaska
Updated at 12:57 AM GMT on February 12, 2016 (3:57 PM AKST):
No PIREP is currently available for this location.
AIRMET - Airmens Meteorological Information
PAII - Egegik, Alaska
Updated at 12:57 AM GMT on February 12, 2016 (3:57 PM AKST):
No AIRMET is currently available for this location.
SIGMET - Significant Meteorological Information
PAII - Egegik, Alaska
Updated at 12:57 AM GMT on February 12, 2016 (3:57 PM AKST):
No SIGMET is currently available for this location.
NOTAM - Notice to Airmen
PAII - Egegik, Alaska
Updated at 12:57 AM GMT on February 12, 2016 (3:57 PM AKST):
No NOTAM is currently available for this location.
Forecast Area
PAII - Egegik, Alaska
Updated at 12:57 AM GMT on February 12, 2016 (3:57 PM AKST):
No NOTAM is currently available for this location.
Aviation Weather Maps